TRA51U EHAM-LFMN
Flight info
| Callsign | TRA51U |
|---|---|
| Flight time | N/A |
| Altitude | 37000 |
| Route | EDUPO Z739 MISGO DCT ASBON DCT TUSUK DCT ULNOK L607 ABUKA DCT KRH DCT NATOR DCT TRA DCT RIPUS DCT GERSA DCT SOSON DCT ODINA DCT ENOBA Z185 BORDI |
| Aircraft | B738/M-SDE2E3FGHIRWXY/LB1 |
Departure
| Time | 2026-04-19 06:53 |
|---|---|
| Airport | Amsterdam Airport Schiphol (EHAM) |
Arrival
| Time | N/A |
|---|---|
| Airport | Nice-Côte d'Azur Airport (LFMN) |
| Time | Latitude | Longitude | Altitude | Speed | Heading |
|---|---|---|---|---|---|
| 2026-04-19 06:48 | 52.30388 | 4.76763 | -2 ft | 0 kts | 241° |
| 2026-04-19 06:49 | 52.30375 | 4.76728 | -2 ft | 12 kts | 237° |
| 2026-04-19 06:49 | 52.30306 | 4.76551 | -2 ft | 25 kts | 238° |
| 2026-04-19 06:49 | 52.30205 | 4.76289 | -2 ft | 27 kts | 238° |
| 2026-04-19 06:50 | 52.30108 | 4.76033 | -2 ft | 26 kts | 238° |
| 2026-04-19 06:50 | 52.30007 | 4.75775 | -2 ft | 28 kts | 238° |
| 2026-04-19 06:50 | 52.29908 | 4.75514 | -2 ft | 26 kts | 238° |
| 2026-04-19 06:50 | 52.29834 | 4.75249 | -2 ft | 27 kts | 276° |
| 2026-04-19 06:51 | 52.29942 | 4.75009 | -2 ft | 26 kts | 310° |
| 2026-04-19 06:51 | 52.30064 | 4.74782 | -1 ft | 27 kts | 312° |
| 2026-04-19 06:51 | 52.30185 | 4.74559 | 9 ft | 25 kts | 311° |
| 2026-04-19 06:51 | 52.30310 | 4.74328 | 3 ft | 29 kts | 311° |
| 2026-04-19 06:52 | 52.30346 | 4.74088 | -2 ft | 23 kts | 239° |
| 2026-04-19 06:52 | 52.30227 | 4.73925 | -2 ft | 22 kts | 218° |
| 2026-04-19 06:52 | 52.30238 | 4.73743 | -4 ft | 22 kts | 349° |
| 2026-04-19 06:52 | 52.30522 | 4.73767 | -4 ft | 79 kts | 2° |
| 2026-04-19 06:53 | 52.31339 | 4.73829 | 33 ft | 150 kts | 1° |
| 2026-04-19 06:53 | 52.32473 | 4.73927 | 661 ft | 176 kts | 2° |
| 2026-04-19 06:53 | 52.33626 | 4.74032 | 2006 ft | 158 kts | 3° |
| 2026-04-19 06:53 | 52.34732 | 4.74626 | 2783 ft | 181 kts | 22° |
| 2026-04-19 06:54 | 52.35972 | 4.75548 | 3052 ft | 209 kts | 21° |
| 2026-04-19 06:54 | 52.37360 | 4.76565 | 3448 ft | 225 kts | 22° |
| 2026-04-19 06:54 | 52.38646 | 4.78124 | 4024 ft | 235 kts | 41° |
| 2026-04-19 06:54 | 52.39796 | 4.80069 | 4679 ft | 240 kts | 43° |
| 2026-04-19 06:55 | 52.40952 | 4.82072 | 5318 ft | 244 kts | 43° |
| 2026-04-19 06:55 | 52.42038 | 4.84319 | 5727 ft | 265 kts | 62° |
| 2026-04-19 06:55 | 52.42450 | 4.87331 | 6387 ft | 279 kts | 84° |
| 2026-04-19 06:55 | 52.42481 | 4.90527 | 7275 ft | 282 kts | 88° |
| 2026-04-19 06:56 | 52.42459 | 4.93749 | 8133 ft | 285 kts | 88° |
| 2026-04-19 06:56 | 52.42296 | 4.97011 | 8937 ft | 293 kts | 104° |
| 2026-04-19 06:56 | 52.41333 | 4.99967 | 9770 ft | 299 kts | 131° |
| 2026-04-19 06:56 | 52.39732 | 5.02155 | 10564 ft | 304 kts | 145° |
| 2026-04-19 06:57 | 52.37953 | 5.04155 | 10842 ft | 327 kts | 146° |
| 2026-04-19 06:57 | 52.36007 | 5.06336 | 11038 ft | 351 kts | 146° |
| 2026-04-19 06:57 | 52.33943 | 5.08688 | 11329 ft | 370 kts | 144° |
| 2026-04-19 06:57 | 52.32018 | 5.11525 | 11950 ft | 377 kts | 131° |
| 2026-04-19 06:58 | 52.30306 | 5.14779 | 12745 ft | 379 kts | 130° |
| 2026-04-19 06:58 | 52.28581 | 5.18066 | 13514 ft | 383 kts | 131° |
| 2026-04-19 06:58 | 52.26811 | 5.21347 | 14214 ft | 388 kts | 131° |
| 2026-04-19 06:58 | 52.25000 | 5.24643 | 14880 ft | 391 kts | 132° |
| 2026-04-19 06:59 | 52.23248 | 5.28059 | 15558 ft | 394 kts | 127° |
| 2026-04-19 06:59 | 52.21634 | 5.31694 | 16227 ft | 398 kts | 125° |
| 2026-04-19 06:59 | 52.20062 | 5.35424 | 16876 ft | 402 kts | 124° |
| 2026-04-19 06:59 | 52.18494 | 5.39162 | 17520 ft | 405 kts | 124° |
| 2026-04-19 07:00 | 52.16883 | 5.42957 | 18160 ft | 409 kts | 125° |
| 2026-04-19 07:00 | 52.15245 | 5.46767 | 18739 ft | 413 kts | 126° |
| 2026-04-19 07:00 | 52.13578 | 5.50605 | 19304 ft | 416 kts | 126° |
| 2026-04-19 07:00 | 52.11895 | 5.54455 | 19862 ft | 419 kts | 126° |
| 2026-04-19 07:01 | 52.10197 | 5.58331 | 20423 ft | 422 kts | 126° |
| 2026-04-19 07:01 | 52.08487 | 5.62231 | 20967 ft | 425 kts | 126° |
| 2026-04-19 07:01 | 52.06761 | 5.66159 | 21503 ft | 428 kts | 127° |
| 2026-04-19 07:01 | 52.04959 | 5.70021 | 22026 ft | 431 kts | 131° |
| 2026-04-19 07:02 | 52.02991 | 5.73707 | 22545 ft | 433 kts | 133° |
| 2026-04-19 07:02 | 52.00974 | 5.77354 | 23063 ft | 436 kts | 133° |
| 2026-04-19 07:02 | 51.98957 | 5.81054 | 23571 ft | 439 kts | 133° |
| 2026-04-19 07:02 | 51.96949 | 5.84792 | 24011 ft | 441 kts | 132° |
| 2026-04-19 07:03 | 51.94930 | 5.88560 | 24407 ft | 444 kts | 133° |
| 2026-04-19 07:03 | 51.92899 | 5.92347 | 24788 ft | 446 kts | 133° |
| 2026-04-19 07:03 | 51.90856 | 5.96147 | 25171 ft | 449 kts | 133° |
| 2026-04-19 07:03 | 51.88796 | 5.99975 | 25529 ft | 452 kts | 133° |
| 2026-04-19 07:04 | 51.86724 | 6.03816 | 25880 ft | 455 kts | 133° |
| 2026-04-19 07:04 | 51.84636 | 6.07674 | 26241 ft | 457 kts | 133° |
| 2026-04-19 07:04 | 51.82528 | 6.11538 | 26604 ft | 459 kts | 133° |
| 2026-04-19 07:04 | 51.80407 | 6.15412 | 26945 ft | 462 kts | 133° |
| 2026-04-19 07:05 | 51.78272 | 6.19309 | 27280 ft | 464 kts | 133° |
| 2026-04-19 07:05 | 51.76156 | 6.23170 | 27600 ft | 467 kts | 133° |
| 2026-04-19 07:05 | 51.74000 | 6.27105 | 27914 ft | 469 kts | 133° |
| 2026-04-19 07:05 | 51.71833 | 6.31059 | 28226 ft | 472 kts | 133° |
| 2026-04-19 07:06 | 51.69654 | 6.35033 | 28519 ft | 474 kts | 133° |
| 2026-04-19 07:06 | 51.67465 | 6.39021 | 28815 ft | 476 kts | 134° |
| 2026-04-19 07:06 | 51.65262 | 6.43026 | 29103 ft | 478 kts | 134° |
| 2026-04-19 07:06 | 51.63048 | 6.47040 | 29406 ft | 480 kts | 134° |
| 2026-04-19 07:07 | 51.60832 | 6.51052 | 29805 ft | 479 kts | 134° |
| 2026-04-19 07:07 | 51.58622 | 6.55048 | 30287 ft | 477 kts | 134° |
| 2026-04-19 07:07 | 51.56420 | 6.59024 | 30664 ft | 475 kts | 134° |
| 2026-04-19 07:07 | 51.54221 | 6.62990 | 30952 ft | 476 kts | 134° |
| 2026-04-19 07:08 | 51.52014 | 6.66961 | 31224 ft | 477 kts | 134° |
| 2026-04-19 07:08 | 51.49810 | 6.70924 | 31533 ft | 476 kts | 134° |
| 2026-04-19 07:08 | 51.47603 | 6.74887 | 31864 ft | 475 kts | 134° |
| 2026-04-19 07:08 | 51.45401 | 6.78837 | 32167 ft | 475 kts | 134° |
| 2026-04-19 07:09 | 51.43191 | 6.82791 | 32446 ft | 476 kts | 135° |
| 2026-04-19 07:09 | 51.40930 | 6.86639 | 32735 ft | 474 kts | 140° |
| 2026-04-19 07:09 | 51.38389 | 6.89956 | 33012 ft | 469 kts | 149° |
| 2026-04-19 07:09 | 51.35640 | 6.92752 | 33310 ft | 468 kts | 152° |
| 2026-04-19 07:10 | 51.32868 | 6.95473 | 33570 ft | 468 kts | 152° |
| 2026-04-19 07:10 | 51.30084 | 6.98191 | 33814 ft | 469 kts | 152° |
| 2026-04-19 07:10 | 51.27304 | 7.00920 | 34091 ft | 469 kts | 152° |
| 2026-04-19 07:10 | 51.24529 | 7.03665 | 34333 ft | 469 kts | 152° |
| 2026-04-19 07:11 | 51.21758 | 7.06422 | 34542 ft | 470 kts | 152° |
| 2026-04-19 07:11 | 51.19028 | 7.09147 | 34741 ft | 470 kts | 152° |
| 2026-04-19 07:11 | 51.16255 | 7.11917 | 34953 ft | 470 kts | 152° |
| 2026-04-19 07:11 | 51.13488 | 7.14679 | 35156 ft | 470 kts | 152° |
| 2026-04-19 07:12 | 51.10716 | 7.17442 | 35356 ft | 470 kts | 152° |
| 2026-04-19 07:12 | 51.07942 | 7.20202 | 35566 ft | 470 kts | 152° |
| 2026-04-19 07:12 | 51.05166 | 7.22959 | 35780 ft | 471 kts | 152° |
| 2026-04-19 07:12 | 51.02386 | 7.25715 | 35965 ft | 471 kts | 152° |
| 2026-04-19 07:13 | 50.99607 | 7.28466 | 36156 ft | 471 kts | 152° |
| 2026-04-19 07:13 | 50.96826 | 7.31215 | 36357 ft | 471 kts | 152° |
| 2026-04-19 07:13 | 50.94041 | 7.33965 | 36566 ft | 471 kts | 152° |
| 2026-04-19 07:13 | 50.91262 | 7.36703 | 36753 ft | 471 kts | 152° |
| 2026-04-19 07:14 | 50.88476 | 7.39446 | 36922 ft | 472 kts | 152° |
| 2026-04-19 07:14 | 50.85687 | 7.42188 | 37090 ft | 472 kts | 152° |
| 2026-04-19 07:14 | 50.80086 | 7.47681 | 37156 ft | 475 kts | 152° |
| 2026-04-19 07:15 | 50.74481 | 7.53168 | 37149 ft | 472 kts | 152° |
| 2026-04-19 07:16 | 50.66215 | 7.61510 | 37127 ft | 469 kts | 150° |
| 2026-04-19 07:16 | 50.60791 | 7.67183 | 37131 ft | 467 kts | 150° |
| 2026-04-19 07:17 | 50.55373 | 7.72809 | 37135 ft | 466 kts | 150° |
| 2026-04-19 07:17 | 50.49940 | 7.78403 | 37137 ft | 467 kts | 150° |
| 2026-04-19 07:18 | 50.44491 | 7.83991 | 37131 ft | 469 kts | 151° |
| 2026-04-19 07:18 | 50.39007 | 7.89600 | 37130 ft | 472 kts | 151° |
| 2026-04-19 07:19 | 50.33498 | 7.95220 | 37126 ft | 474 kts | 151° |
| 2026-04-19 07:19 | 50.27960 | 8.00856 | 37109 ft | 476 kts | 151° |
| 2026-04-19 07:20 | 50.22670 | 8.06225 | 37111 ft | 477 kts | 151° |
| 2026-04-19 07:20 | 50.16991 | 8.11975 | 37114 ft | 477 kts | 151° |
| 2026-04-19 07:21 | 50.11403 | 8.17555 | 37116 ft | 476 kts | 153° |
| 2026-04-19 07:21 | 50.05711 | 8.22806 | 37116 ft | 475 kts | 154° |
| 2026-04-19 07:22 | 50.00058 | 8.27954 | 37114 ft | 474 kts | 153° |
| 2026-04-19 07:22 | 49.94394 | 8.33165 | 37111 ft | 473 kts | 153° |
| 2026-04-19 07:23 | 49.88748 | 8.38367 | 37124 ft | 472 kts | 153° |
| 2026-04-19 07:23 | 49.83266 | 8.44031 | 37111 ft | 478 kts | 141° |
| 2026-04-19 07:24 | 49.78463 | 8.51196 | 37109 ft | 480 kts | 139° |
| 2026-04-19 07:24 | 49.73485 | 8.57990 | 37092 ft | 473 kts | 151° |
| 2026-04-19 07:25 | 49.67603 | 8.62144 | 37101 ft | 461 kts | 169° |
| 2026-04-19 07:25 | 49.61350 | 8.63904 | 37093 ft | 456 kts | 175° |
| 2026-04-19 07:26 | 49.55102 | 8.65519 | 37098 ft | 455 kts | 174° |
| 2026-04-19 07:26 | 49.48859 | 8.67234 | 37106 ft | 455 kts | 176° |
| 2026-04-19 07:27 | 49.42624 | 8.67303 | 37099 ft | 445 kts | 192° |
| 2026-04-19 07:27 | 49.36491 | 8.65972 | 37115 ft | 445 kts | 192° |
| 2026-04-19 07:28 | 49.30353 | 8.64646 | 37119 ft | 446 kts | 192° |
| 2026-04-19 07:28 | 49.24193 | 8.63383 | 37119 ft | 447 kts | 192° |
| 2026-04-19 07:29 | 49.18021 | 8.62144 | 37112 ft | 448 kts | 192° |
| 2026-04-19 07:29 | 49.12875 | 8.61114 | 37119 ft | 449 kts | 192° |
| 2026-04-19 07:30 | 49.06673 | 8.59873 | 37089 ft | 450 kts | 192° |
| 2026-04-19 07:30 | 49.00455 | 8.58631 | 37087 ft | 451 kts | 192° |
| 2026-04-19 07:31 | 48.94312 | 8.56946 | 37106 ft | 448 kts | 197° |
| 2026-04-19 07:31 | 48.88230 | 8.54902 | 37104 ft | 447 kts | 197° |
| 2026-04-19 07:32 | 48.82151 | 8.52869 | 37111 ft | 448 kts | 197° |
| 2026-04-19 07:32 | 48.76059 | 8.50884 | 37103 ft | 448 kts | 196° |
| 2026-04-19 07:33 | 48.69966 | 8.48926 | 37096 ft | 447 kts | 196° |
| 2026-04-19 07:33 | 48.63880 | 8.46977 | 37101 ft | 447 kts | 197° |
| 2026-04-19 07:34 | 48.57796 | 8.45032 | 37097 ft | 446 kts | 197° |
| 2026-04-19 07:34 | 48.51722 | 8.43093 | 37090 ft | 446 kts | 197° |
| 2026-04-19 07:35 | 48.45693 | 8.41174 | 37087 ft | 446 kts | 197° |
| 2026-04-19 07:35 | 48.39627 | 8.39247 | 37093 ft | 445 kts | 197° |
| 2026-04-19 07:36 | 48.33559 | 8.37324 | 37090 ft | 446 kts | 197° |
| 2026-04-19 07:36 | 48.27475 | 8.35401 | 37100 ft | 447 kts | 197° |
| 2026-04-19 07:37 | 48.21388 | 8.33482 | 37094 ft | 447 kts | 197° |
| 2026-04-19 07:37 | 48.15170 | 8.32537 | 37094 ft | 456 kts | 181° |
| 2026-04-19 07:38 | 48.08848 | 8.33911 | 37095 ft | 461 kts | 175° |
| 2026-04-19 07:38 | 48.02531 | 8.35568 | 37096 ft | 461 kts | 175° |
| 2026-04-19 07:39 | 47.96210 | 8.37153 | 37095 ft | 461 kts | 175° |
| 2026-04-19 07:39 | 47.89883 | 8.38685 | 37101 ft | 461 kts | 175° |
| 2026-04-19 07:40 | 47.83973 | 8.40105 | 37100 ft | 461 kts | 175° |
| 2026-04-19 07:40 | 47.77637 | 8.41627 | 37111 ft | 461 kts | 175° |
| 2026-04-19 07:41 | 47.71297 | 8.43149 | 37111 ft | 462 kts | 175° |
| 2026-04-19 07:41 | 47.64945 | 8.44442 | 37121 ft | 459 kts | 179° |
| 2026-04-19 07:42 | 47.58585 | 8.45317 | 37125 ft | 459 kts | 180° |
| 2026-04-19 07:42 | 47.52222 | 8.46180 | 37117 ft | 459 kts | 179° |
| 2026-04-19 07:43 | 47.45868 | 8.47096 | 37125 ft | 459 kts | 179° |
| 2026-04-19 07:43 | 47.39518 | 8.48027 | 37131 ft | 458 kts | 179° |
| 2026-04-19 07:44 | 47.33174 | 8.48956 | 37135 ft | 458 kts | 179° |
| 2026-04-19 07:44 | 47.26865 | 8.49874 | 37121 ft | 459 kts | 179° |
| 2026-04-19 07:45 | 47.20469 | 8.50803 | 37130 ft | 458 kts | 179° |
| 2026-04-19 07:45 | 47.14121 | 8.51723 | 37134 ft | 458 kts | 179° |
| 2026-04-19 07:46 | 47.07812 | 8.52635 | 37157 ft | 459 kts | 179° |
| 2026-04-19 07:46 | 47.01458 | 8.53552 | 37141 ft | 458 kts | 179° |
| 2026-04-19 07:47 | 46.95113 | 8.54469 | 37160 ft | 458 kts | 179° |
| 2026-04-19 07:47 | 46.88765 | 8.55383 | 37179 ft | 459 kts | 179° |
| 2026-04-19 07:48 | 46.82393 | 8.56299 | 37152 ft | 460 kts | 179° |
| 2026-04-19 07:48 | 46.76018 | 8.57210 | 37154 ft | 460 kts | 179° |
| 2026-04-19 07:49 | 46.69643 | 8.58124 | 37131 ft | 460 kts | 180° |
| 2026-04-19 07:49 | 46.63268 | 8.59029 | 37132 ft | 460 kts | 180° |
| 2026-04-19 07:50 | 46.56897 | 8.59941 | 37118 ft | 460 kts | 180° |
| 2026-04-19 07:50 | 46.50528 | 8.60847 | 37112 ft | 459 kts | 180° |
| 2026-04-19 07:51 | 46.44181 | 8.61747 | 37107 ft | 457 kts | 179° |
| 2026-04-19 07:51 | 46.37852 | 8.62642 | 37077 ft | 455 kts | 180° |
| 2026-04-19 07:52 | 46.31576 | 8.63529 | 37111 ft | 454 kts | 180° |
| 2026-04-19 07:52 | 46.25282 | 8.64408 | 37112 ft | 453 kts | 180° |
| 2026-04-19 07:53 | 46.19011 | 8.65294 | 37111 ft | 450 kts | 180° |
| 2026-04-19 07:53 | 46.12721 | 8.66173 | 37110 ft | 458 kts | 180° |
| 2026-04-19 07:54 | 46.06457 | 8.65887 | 37116 ft | 451 kts | 193° |
| 2026-04-19 07:54 | 46.00235 | 8.64552 | 37113 ft | 453 kts | 194° |
| 2026-04-19 07:55 | 45.97116 | 8.63859 | 37089 ft | 455 kts | 194° |
| 2026-04-19 07:55 | 45.95639 | 8.63535 | 37084 ft | 455 kts | 194° |
| 2026-04-19 07:56 | 45.90544 | 8.62447 | 37101 ft | 456 kts | 193° |
| 2026-04-19 07:56 | 45.84253 | 8.61149 | 37090 ft | 456 kts | 193° |
| 2026-04-19 07:57 | 45.77971 | 8.59874 | 37084 ft | 455 kts | 193° |
| 2026-04-19 07:57 | 45.71710 | 8.58608 | 37093 ft | 453 kts | 193° |
| 2026-04-19 07:58 | 45.65481 | 8.57349 | 37098 ft | 451 kts | 193° |
| 2026-04-19 07:58 | 45.59273 | 8.56096 | 37095 ft | 450 kts | 193° |
| 2026-04-19 07:59 | 45.53083 | 8.54848 | 37098 ft | 448 kts | 193° |
| 2026-04-19 07:59 | 45.46910 | 8.53606 | 37096 ft | 448 kts | 193° |
| 2026-04-19 08:00 | 45.40741 | 8.52368 | 37095 ft | 448 kts | 193° |
| 2026-04-19 08:00 | 45.34573 | 8.51132 | 37095 ft | 448 kts | 193° |
| 2026-04-19 08:01 | 45.28384 | 8.49896 | 37091 ft | 450 kts | 193° |
| 2026-04-19 08:01 | 45.22177 | 8.48658 | 37082 ft | 451 kts | 193° |
| 2026-04-19 08:02 | 45.15943 | 8.47418 | 37082 ft | 453 kts | 193° |
| 2026-04-19 08:02 | 45.09690 | 8.46177 | 37081 ft | 455 kts | 193° |
| 2026-04-19 08:03 | 45.03408 | 8.44934 | 37085 ft | 456 kts | 193° |
| 2026-04-19 08:03 | 44.97151 | 8.43699 | 37084 ft | 457 kts | 193° |
| 2026-04-19 08:04 | 44.90846 | 8.42456 | 37083 ft | 458 kts | 193° |
| 2026-04-19 08:04 | 44.87689 | 8.41834 | 36951 ft | 460 kts | 193° |
| 2026-04-19 08:04 | 44.84497 | 8.41204 | 36412 ft | 464 kts | 193° |
| 2026-04-19 08:04 | 44.81314 | 8.40581 | 35822 ft | 461 kts | 194° |
| 2026-04-19 08:05 | 44.78139 | 8.39960 | 35156 ft | 461 kts | 194° |
| 2026-04-19 08:05 | 44.74963 | 8.39339 | 34502 ft | 461 kts | 195° |
| 2026-04-19 08:05 | 44.71784 | 8.38717 | 33796 ft | 461 kts | 195° |
| 2026-04-19 08:05 | 44.68605 | 8.38096 | 33023 ft | 462 kts | 195° |
| 2026-04-19 08:06 | 44.65421 | 8.37474 | 32278 ft | 462 kts | 194° |
| 2026-04-19 08:06 | 44.62229 | 8.36850 | 31550 ft | 463 kts | 194° |
| 2026-04-19 08:06 | 44.59053 | 8.36231 | 31032 ft | 459 kts | 194° |
| 2026-04-19 08:06 | 44.55906 | 8.35621 | 30512 ft | 455 kts | 194° |
| 2026-04-19 08:07 | 44.52782 | 8.35015 | 29968 ft | 451 kts | 194° |
| 2026-04-19 08:07 | 44.49684 | 8.34414 | 29385 ft | 447 kts | 194° |
| 2026-04-19 08:07 | 44.46620 | 8.33820 | 28864 ft | 442 kts | 194° |
| 2026-04-19 08:07 | 44.43592 | 8.33233 | 28342 ft | 437 kts | 193° |
| 2026-04-19 08:08 | 44.40599 | 8.32652 | 27827 ft | 432 kts | 193° |
| 2026-04-19 08:08 | 44.37632 | 8.32077 | 27319 ft | 428 kts | 193° |
| 2026-04-19 08:08 | 44.34699 | 8.31510 | 26811 ft | 424 kts | 193° |
| 2026-04-19 08:08 | 44.31876 | 8.30550 | 26304 ft | 411 kts | 208° |
| 2026-04-19 08:09 | 44.29467 | 8.28580 | 25844 ft | 396 kts | 223° |
| 2026-04-19 08:09 | 44.27550 | 8.25905 | 25310 ft | 385 kts | 238° |
| 2026-04-19 08:09 | 44.26047 | 8.22849 | 24857 ft | 381 kts | 240° |
| 2026-04-19 08:09 | 44.24568 | 8.19793 | 24354 ft | 379 kts | 240° |
| 2026-04-19 08:10 | 44.23092 | 8.16766 | 23889 ft | 377 kts | 239° |
| 2026-04-19 08:10 | 44.21610 | 8.13754 | 23358 ft | 376 kts | 239° |
| 2026-04-19 08:10 | 44.20128 | 8.10765 | 22819 ft | 374 kts | 239° |
| 2026-04-19 08:10 | 44.18653 | 8.07804 | 22358 ft | 370 kts | 239° |
| 2026-04-19 08:11 | 44.17188 | 8.04871 | 21887 ft | 367 kts | 239° |
| 2026-04-19 08:11 | 44.15740 | 8.01973 | 21410 ft | 363 kts | 239° |
| 2026-04-19 08:11 | 44.14304 | 7.99106 | 20955 ft | 360 kts | 239° |
| 2026-04-19 08:11 | 44.12878 | 7.96263 | 20512 ft | 356 kts | 239° |
| 2026-04-19 08:12 | 44.11484 | 7.93481 | 20046 ft | 354 kts | 239° |
| 2026-04-19 08:12 | 44.10082 | 7.90687 | 19620 ft | 351 kts | 239° |